Time;durP1;ratioP1;P1;durP2;ratioP2;P2;SDS_P1;SDS_P2;PMS_P1;PMS_P2;Temp;Humidity;BMP_temperature;BMP_pressure;BME280_temperature;BME280_humidity;BME280_pressure;Samples;Min_cycle;Max_cycle;Signal;HPM_P1;HPM_P2
2021/10/28 00:12:12;;;;;;;17.38;13.18;;;;;;;8.69;100.00;101845.09;10551573;28;20051;-78
2021/10/28 00:14:56;;;;;;;21.20;13.57;;;;;;;8.56;100.00;101841.94;10565839;28;20059;-78
2021/10/28 00:19:57;;;;;;;17.85;11.68;;;;;;;8.45;100.00;101839.88;10548066;28;20134;-78
2021/10/28 00:24:59;;;;;;;18.17;13.23;;;;;;;8.48;100.00;101832.22;10543310;28;20094;-78
2021/10/28 00:30:00;;;;;;;16.25;13.15;;;;;;;8.40;100.00;101837.91;10536350;28;20488;-77
2021/10/28 00:35:02;;;;;;;14.30;11.93;;;;;;;8.43;100.00;101844.06;10541048;28;20116;-77
2021/10/28 00:40:07;;;;;;;17.40;12.82;;;;;;;8.41;100.00;101837.97;10545407;28;20044;-78
2021/10/28 00:45:09;;;;;;;18.38;13.45;;;;;;;8.34;100.00;101830.78;10542788;28;20124;-78
2021/10/28 00:50:10;;;;;;;22.55;14.25;;;;;;;8.33;100.00;101817.81;10540522;28;20040;-77
2021/10/28 00:55:12;;;;;;;21.25;12.45;;;;;;;8.29;100.00;101823.69;10551747;28;20048;-78
2021/10/28 01:00:14;;;;;;;19.42;12.65;;;;;;;8.22;100.00;101826.03;10550166;28;20097;-78
2021/10/28 01:05:15;;;;;;;16.23;12.20;;;;;;;8.18;100.00;101828.41;10577885;28;20105;-78
2021/10/28 01:10:17;;;;;;;17.90;12.70;;;;;;;8.17;100.00;101822.38;10590552;28;20396;-77
2021/10/28 01:15:18;;;;;;;17.70;13.10;;;;;;;8.13;100.00;101829.91;10590753;28;20056;-78
2021/10/28 01:20:20;;;;;;;21.58;13.15;;;;;;;8.10;100.00;101824.63;10557550;27;20044;-78
2021/10/28 01:25:21;;;;;;;18.63;13.18;;;;;;;8.11;100.00;101827.28;10555048;28;20052;-77
2021/10/28 01:30:23;;;;;;;20.02;13.48;;;;;;;8.10;100.00;101814.31;10562806;28;20058;-77
2021/10/28 01:35:25;;;;;;;19.20;13.23;;;;;;;8.00;100.00;101813.09;10548227;28;20052;-77
2021/10/28 01:40:26;;;;;;;17.45;12.40;;;;;;;8.01;100.00;101817.41;10548975;28;20055;-77
2021/10/28 01:45:28;;;;;;;17.15;12.18;;;;;;;7.97;100.00;101816.41;10549190;28;20047;-77
2021/10/28 01:50:30;;;;;;;19.45;13.10;;;;;;;7.97;100.00;101808.66;10548622;28;20078;-77
2021/10/28 01:55:32;;;;;;;17.63;12.75;;;;;;;7.85;100.00;101803.03;10549292;28;20055;-78
2021/10/28 02:00:35;;;;;;;19.38;12.77;;;;;;;7.81;100.00;101805.41;10548723;28;20089;-77
2021/10/28 02:05:36;;;;;;;15.57;11.80;;;;;;;7.74;100.00;101805.97;10577934;28;20052;-77
2021/10/28 02:10:38;;;;;;;20.00;12.65;;;;;;;7.80;100.00;101793.34;10577602;28;20048;-77
2021/10/28 02:15:40;;;;;;;18.05;13.45;;;;;;;7.80;100.00;101796.78;10541756;28;20145;-77
2021/10/28 02:20:42;;;;;;;18.35;11.80;;;;;;;7.71;100.00;101791.25;10558543;28;20051;-77
2021/10/28 02:25:44;;;;;;;16.92;12.77;;;;;;;7.81;100.00;101784.78;10548660;28;20048;-77
2021/10/28 02:30:45;;;;;;;20.67;11.77;;;;;;;7.91;100.00;101772.34;10578241;28;20051;-78
2021/10/28 02:35:47;;;;;;;18.42;11.88;;;;;;;7.76;100.00;101769.13;10583224;28;20055;-77
2021/10/28 02:40:48;;;;;;;14.63;11.27;;;;;;;7.70;100.00;101768.88;10583391;28;20058;-77
2021/10/28 02:45:51;;;;;;;16.67;10.75;;;;;;;7.70;100.00;101766.31;10582870;28;20051;-78
2021/10/28 02:50:52;;;;;;;15.05;10.80;;;;;;;7.72;100.00;101756.09;10581360;28;20056;-78
2021/10/28 02:55:54;;;;;;;15.13;12.23;;;;;;;7.56;100.00;101752.88;10582615;28;20058;-77
2021/10/28 03:00:56;;;;;;;16.35;11.80;;;;;;;7.62;100.00;101752.25;10581107;28;20066;-77
2021/10/28 03:05:57;;;;;;;15.00;10.80;;;;;;;7.48;100.00;101743.94;10547988;28;20105;-76
2021/10/28 03:11:00;;;;;;;18.25;10.80;;;;;;;7.38;100.00;101737.56;10538219;28;20510;-77
2021/10/28 03:16:14;;;;;;;13.68;10.38;;;;;;;7.35;100.00;101737.41;10538202;28;20403;-77
2021/10/28 03:26:35;;;;;;;16.02;11.73;;;;;;;7.30;100.00;101727.72;10544898;28;20055;-77
2021/10/28 03:31:37;;;;;;;20.17;11.73;;;;;;;7.26;100.00;101721.59;10537525;28;20048;-77
2021/10/28 03:36:48;;;;;;;16.35;12.38;;;;;;;7.23;100.00;101726.59;10542776;28;20682;-77
2021/10/28 04:33:48;;;;;;;22.55;15.20;;;;;;;6.83;100.00;101683.72;10536106;28;20437;-76
2021/10/28 04:38:50;;;;;;;22.02;14.20;;;;;;;6.86;100.00;101677.81;10535443;28;20059;-77
2021/10/28 04:43:53;;;;;;;16.77;13.60;;;;;;;6.83;100.00;101690.56;10534980;28;20097;-76
2021/10/28 04:48:54;;;;;;;22.10;14.88;;;;;;;6.80;100.00;101691.28;10534762;28;20048;-76
2021/10/28 04:53:56;;;;;;;22.13;14.90;;;;;;;6.93;100.00;101691.84;10534544;28;20044;-77
2021/10/28 04:58:57;;;;;;;21.77;15.80;;;;;;;6.97;100.00;101686.00;10534590;28;20052;-76
2021/10/28 05:03:59;;;;;;;19.42;15.20;;;;;;;6.79;100.00;101689.53;10551890;28;20052;-76
2021/10/28 05:09:01;;;;;;;18.98;14.43;;;;;;;6.74;100.00;101683.31;10576424;28;20055;-76
2021/10/28 05:14:02;;;;;;;23.70;15.38;;;;;;;6.78;100.00;101694.63;10576604;28;20089;-76
2021/10/28 05:19:04;;;;;;;23.15;14.82;;;;;;;6.75;100.00;101682.53;10553602;28;20052;-76
2021/10/28 05:24:05;;;;;;;25.42;15.88;;;;;;;6.75;100.00;101679.03;10536281;28;20044;-76
2021/10/28 05:29:07;;;;;;;23.52;14.98;;;;;;;6.76;100.00;101673.13;10538797;28;20059;-76
2021/10/28 05:34:08;;;;;;;26.33;16.48;;;;;;;6.78;100.00;101677.50;10535042;28;20056;-76
2021/10/28 05:39:09;;;;;;;22.67;15.40;;;;;;;6.76;100.00;101676.56;10534943;28;20064;-76
2021/10/28 05:44:11;;;;;;;25.05;15.63;;;;;;;6.74;100.00;101667.00;10538601;28;20070;-77
2021/10/28 05:49:13;;;;;;;19.77;15.38;;;;;;;6.56;100.00;101673.09;10543043;28;20476;-76
2021/10/28 05:54:14;;;;;;;23.40;15.82;;;;;;;6.75;100.00;101666.19;10541046;28;20056;-76
2021/10/28 05:59:16;;;;;;;22.75;15.68;;;;;;;6.74;100.00;101659.28;10541412;28;20052;-76
2021/10/28 06:04:18;;;;;;;26.50;14.57;;;;;;;6.69;100.00;101658.22;10561835;28;20051;-76
2021/10/28 06:09:19;;;;;;;20.90;14.27;;;;;;;6.36;100.00;101654.25;10583267;28;20063;-76
2021/10/28 06:14:24;;;;;;;21.77;14.43;;;;;;;6.37;100.00;101648.28;10547947;28;20056;-76
2021/10/28 06:19:25;;;;;;;22.17;13.82;;;;;;;6.30;100.00;101653.97;10538838;28;20043;-76
2021/10/28 06:24:27;;;;;;;21.73;16.13;;;;;;;6.37;100.00;101644.84;10543299;28;20059;-76
2021/10/28 06:29:29;;;;;;;25.65;15.40;;;;;;;6.17;100.00;101645.63;10542657;28;20052;-76
2021/10/28 06:34:38;;;;;;;25.88;14.30;;;;;;;6.29;100.00;101647.03;10539851;28;20424;-76
2021/10/28 06:39:40;;;;;;;20.88;15.50;;;;;;;6.19;100.00;101636.31;10539938;28;20055;-76
2021/10/28 06:44:43;;;;;;;21.17;14.50;;;;;;;6.19;100.00;101650.03;10555187;28;20061;-77
2021/10/28 06:49:45;;;;;;;23.80;15.10;;;;;;;6.44;100.00;101652.00;10539192;28;20052;-76
2021/10/28 06:54:47;;;;;;;21.30;14.60;;;;;;;6.42;100.00;101650.19;10539431;28;20507;-76
2021/10/28 07:05:09;;;;;;;23.83;15.95;;;;;;;6.63;100.00;101645.97;10566698;28;20089;-76
2021/10/28 07:10:16;;;;;;;22.70;14.63;;;;;;;6.56;100.00;101637.13;10580132;28;20487;-76
2021/10/28 08:23:43;;;;;;;35.50;19.40;;;;;;;8.17;100.00;101602.44;10536512;28;20044;-75
2021/10/28 08:28:49;;;;;;;37.65;20.23;;;;;;;8.31;100.00;101606.38;10542450;28;20056;-75
2021/10/28 08:33:51;;;;;;;36.25;20.30;;;;;;;8.47;100.00;101603.56;10544689;28;20048;-75
2021/10/28 08:38:54;;;;;;;38.20;21.95;;;;;;;8.35;100.00;101597.94;10541221;28;20457;-76
2021/10/28 08:43:56;;;;;;;36.28;20.00;;;;;;;8.60;100.00;101598.84;10535546;28;20434;-76
2021/10/28 08:49:00;;;;;;;37.75;20.90;;;;;;;8.94;100.00;101598.28;10535022;28;20122;-77
2021/10/28 09:31:51;;;;;;;27.52;16.33;;;;;;;10.51;100.00;101524.63;10543849;28;20071;-76
2021/10/28 09:47:51;;;;;;;27.63;17.50;;;;;;;10.90;100.00;101508.38;10543515;28;20044;-77
2021/10/28 09:53:32;;;;;;;26.48;17.17;;;;;;;11.24;100.00;101500.53;10556186;28;20059;-77
2021/10/28 09:58:34;;;;;;;23.23;15.82;;;;;;;11.35;99.88;101491.28;10544794;28;20514;-78
2021/10/28 10:03:39;;;;;;;23.50;13.80;;;;;;;11.57;98.87;101491.72;10557194;28;20051;-78
2021/10/28 10:08:41;;;;;;;23.23;14.55;;;;;;;11.82;96.35;101483.66;10583191;28;20074;-76
2021/10/28 10:13:46;;;;;;;21.52;12.80;;;;;;;11.68;99.33;101479.88;10582881;28;20047;-77
2021/10/28 10:18:48;;;;;;;42.55;25.50;;;;;;;11.92;95.41;101475.22;10563495;28;20059;-78
2021/10/28 10:24:18;;;;;;;21.23;14.50;;;;;;;12.35;90.91;101462.16;10540886;28;20056;-77
2021/10/28 11:03:23;;;;;;;18.38;11.82;;;;;;;14.82;79.40;101415.84;10574131;28;20047;-77
2021/10/28 12:44:36;;;;;;;13.48;10.00;;;;;;;15.46;74.27;101247.53;10553245;28;20048;-78
2021/10/28 13:37:59;;;;;;;13.05;8.48;;;;;;;15.44;70.93;101190.16;10538125;28;20063;-78
2021/10/28 15:28:43;;;;;;;10.02;7.90;;;;;;;14.34;77.73;101103.94;10546809;28;20052;-79
2021/10/28 15:34:06;;;;;;;11.20;7.55;;;;;;;14.24;77.85;101102.19;10547335;28;20047;-78
2021/10/28 16:21:51;;;;;;;11.60;7.18;;;;;;;12.85;85.60;101083.03;10551870;28;20109;-79
2021/10/28 16:26:54;;;;;;;14.23;9.90;;;;;;;12.49;88.12;101080.94;10547375;28;20089;-79
2021/10/28 16:31:56;;;;;;;28.48;18.27;;;;;;;12.56;86.85;101054.19;10545236;28;20093;-79
2021/10/28 16:36:59;;;;;;;18.23;14.15;;;;;;;12.35;88.93;101060.88;10551060;28;20044;-79
2021/10/28 16:42:06;;;;;;;19.98;14.32;;;;;;;12.07;90.75;101064.00;10544672;28;20134;-79
2021/10/28 16:47:08;;;;;;;15.55;10.93;;;;;;;12.10;90.06;101064.06;10540881;28;20070;-79
2021/10/28 16:52:10;;;;;;;12.45;9.55;;;;;;;11.72;93.11;101061.81;10548635;28;20083;-79
2021/10/28 16:57:11;;;;;;;15.90;13.60;;;;;;;11.67;93.37;101069.50;10549902;28;20055;-78
2021/10/28 17:02:13;;;;;;;24.23;16.67;;;;;;;11.38;95.32;101069.09;10544465;28;20123;-78
2021/10/28 17:07:15;;;;;;;15.60;9.88;;;;;;;11.53;94.15;101068.47;10572911;28;20070;-79
2021/10/28 17:12:20;;;;;;;13.32;9.70;;;;;;;11.58;93.65;101065.94;10535240;28;20553;-78
2021/10/28 17:17:25;;;;;;;12.30;8.95;;;;;;;11.63;92.50;101047.00;10541273;28;20047;-78
2021/10/28 17:22:27;;;;;;;15.57;10.40;;;;;;;11.12;96.40;101049.72;10576250;28;20047;-78
2021/10/28 17:27:36;;;;;;;13.63;10.00;;;;;;;11.28;94.64;101054.25;10561232;28;20403;-79
2021/10/28 17:32:43;;;;;;;12.27;9.70;;;;;;;11.03;96.19;101053.00;10549306;28;20040;-78
2021/10/28 17:37:47;;;;;;;23.00;17.48;;;;;;;11.10;95.68;101056.56;10536699;28;20131;-79
2021/10/28 17:42:53;;;;;;;20.40;13.55;;;;;;;11.02;95.39;101043.50;10556716;28;20423;-79
2021/10/28 17:47:58;;;;;;;33.90;20.98;;;;;;;10.49;99.29;101043.44;10557901;28;20083;-79
2021/10/28 17:53:03;;;;;;;39.85;22.95;;;;;;;10.84;97.09;101038.03;10542406;28;20134;-79
2021/10/28 17:58:09;;;;;;;70.30;35.55;;;;;;;10.51;99.01;101036.59;10551842;28;20115;-80
2021/10/28 18:03:12;;;;;;;35.83;22.20;;;;;;;10.18;100.00;101044.56;10557130;28;20094;-79
2021/10/28 18:08:14;;;;;;;25.83;14.73;;;;;;;10.05;100.00;101046.03;10554947;28;20503;-80
2021/10/28 18:13:18;;;;;;;19.92;10.15;;;;;;;9.92;100.00;101056.06;10541635;28;20048;-78
2021/10/28 18:18:20;;;;;;;17.52;10.77;;;;;;;9.83;100.00;101054.19;10556325;28;20076;-78
2021/10/28 18:23:34;;;;;;;11.98;10.25;;;;;;;9.70;100.00;101050.47;10542150;28;20055;-78
2021/10/28 18:28:38;;;;;;;13.80;10.95;;;;;;;9.62;100.00;101053.72;10542585;28;20131;-78
2021/10/28 18:33:43;;;;;;;17.17;13.45;;;;;;;9.85;100.00;101047.31;10554509;28;20127;-78
2021/10/28 18:38:45;;;;;;;15.60;12.52;;;;;;;9.73;100.00;101045.34;10540252;28;20583;-78
2021/10/28 18:43:48;;;;;;;13.20;11.68;;;;;;;10.26;100.00;101035.25;10540010;28;20047;-79
2021/10/28 18:49:00;;;;;;;14.32;10.80;;;;;;;9.92;100.00;101045.72;10553956;28;20056;-78
2021/10/28 18:54:02;;;;;;;17.13;11.23;;;;;;;10.27;100.00;101037.03;10554029;28;20052;-79
2021/10/28 18:59:04;;;;;;;19.23;13.45;;;;;;;10.13;100.00;101032.38;10581589;28;20077;-78
2021/10/28 19:04:07;;;;;;;17.73;12.82;;;;;;;9.77;100.00;101038.56;10581763;28;20078;-79
2021/10/28 19:09:10;;;;;;;21.05;15.95;;;;;;;9.70;100.00;101047.88;10568840;28;20055;-79
2021/10/28 19:14:13;;;;;;;60.83;41.50;;;;;;;9.92;100.00;101037.97;10559829;28;20552;-78
2021/10/28 19:19:14;;;;;;;63.78;43.13;;;;;;;9.67;100.00;101037.47;10540853;28;20117;-79
2021/10/28 19:24:22;;;;;;;27.25;21.45;;;;;;;9.72;100.00;101029.81;10558494;28;20479;-78
2021/10/28 19:29:25;;;;;;;25.67;18.15;;;;;;;9.78;100.00;101017.91;10550418;28;20503;-78
2021/10/28 19:34:32;;;;;;;20.02;15.60;;;;;;;9.52;100.00;101021.63;10552900;28;20065;-78
2021/10/28 19:50:06;;;;;;;22.95;18.08;;;;;;;9.66;100.00;101009.91;10560802;28;20104;-78
2021/10/28 19:55:09;;;;;;;22.15;15.90;;;;;;;9.62;100.00;101012.38;10541731;28;20103;-78
2021/10/28 20:00:30;;;;;;;19.75;15.35;;;;;;;9.67;100.00;101008.19;10536663;28;20428;-78
2021/10/28 20:05:49;;;;;;;17.63;14.48;;;;;;;10.12;100.00;100997.91;10540899;28;20058;-78
2021/10/28 20:21:17;;;;;;;27.63;19.67;;;;;;;9.52;100.00;100985.47;10539678;28;20052;-78
2021/10/28 20:26:29;;;;;;;18.73;15.43;;;;;;;9.80;100.00;100986.91;10536510;28;20048;-79
2021/10/28 20:31:32;;;;;;;20.10;13.50;;;;;;;9.73;100.00;100983.34;10549807;28;20047;-78
2021/10/28 20:41:57;;;;;;;16.00;12.85;;;;;;;9.47;100.00;100979.34;10559283;28;20052;-78
2021/10/28 20:47:02;;;;;;;18.52;13.30;;;;;;;9.08;100.00;100981.94;10540651;28;20133;-78
2021/10/28 20:52:05;;;;;;;19.58;14.27;;;;;;;9.60;100.00;100976.19;10535277;28;20063;-79
2021/10/28 20:57:06;;;;;;;18.13;12.90;;;;;;;9.09;100.00;100988.84;10550190;28;20434;-78
2021/10/28 21:02:09;;;;;;;14.02;12.05;;;;;;;8.98;100.00;100986.00;10550017;28;20052;-78
2021/10/28 21:07:11;;;;;;;17.20;12.57;;;;;;;9.14;100.00;100975.19;10576925;28;20606;-78
2021/10/28 21:12:12;;;;;;;17.50;11.55;;;;;;;9.18;100.00;100969.25;10565304;28;20123;-78
2021/10/28 21:17:14;;;;;;;17.88;10.68;;;;;;;8.80;100.00;100964.94;10554464;28;20060;-78
2021/10/28 21:22:16;;;;;;;17.30;11.82;;;;;;;8.67;100.00;100964.63;10551119;28;20051;-78
2021/10/28 21:27:20;;;;;;;14.73;10.90;;;;;;;8.67;100.00;100959.47;10555207;28;20052;-78
2021/10/28 21:32:23;;;;;;;19.58;12.35;;;;;;;8.56;100.00;100958.31;10567859;28;20052;-78
2021/10/28 21:37:26;;;;;;;20.25;12.38;;;;;;;8.38;100.00;100950.13;10546751;28;20056;-78
2021/10/28 21:42:27;;;;;;;20.73;13.27;;;;;;;8.31;100.00;100948.22;10557121;28;20044;-78
2021/10/28 21:47:29;;;;;;;18.55;14.63;;;;;;;8.56;100.00;100940.28;10542969;28;20083;-78
2021/10/28 21:52:33;;;;;;;18.02;12.88;;;;;;;8.80;100.00;100945.16;10556367;28;20062;-78
2021/10/28 22:24:21;;;;;;;19.83;14.65;;;;;;;8.33;100.00;100936.22;10568803;28;20408;-78
2021/10/28 22:29:22;;;;;;;20.60;15.40;;;;;;;7.89;100.00;100936.81;10540739;28;20523;-78
2021/10/28 22:34:24;;;;;;;23.27;15.48;;;;;;;7.97;100.00;100939.59;10554318;28;20063;-78
2021/10/28 22:39:47;;;;;;;21.63;15.82;;;;;;;7.91;100.00;100926.56;10555317;28;20054;-78
2021/10/28 22:44:48;;;;;;;24.05;14.25;;;;;;;7.74;100.00;100926.09;10555749;28;20052;-78
2021/10/28 22:49:50;;;;;;;22.98;17.10;;;;;;;7.56;100.00;100921.31;10539964;28;20052;-78
2021/10/28 22:54:59;;;;;;;25.65;15.80;;;;;;;7.48;100.00;100909.91;10539318;28;20054;-78
2021/10/28 23:00:04;;;;;;;27.15;17.38;;;;;;;7.52;100.00;100906.59;10551974;28;20060;-78
2021/10/28 23:15:41;;;;;;;26.38;16.23;;;;;;;7.23;100.00;100892.91;10539684;28;20043;-78
2021/10/28 23:20:48;;;;;;;23.35;17.30;;;;;;;7.29;100.00;100893.09;10568153;28;20067;-78
2021/10/28 23:25:49;;;;;;;25.33;17.30;;;;;;;7.26;100.00;100893.00;10568799;28;20043;-78
2021/10/28 23:30:51;;;;;;;24.83;17.38;;;;;;;7.74;100.00;100877.16;10552751;28;20058;-78
2021/10/28 23:35:53;;;;;;;28.55;17.50;;;;;;;7.42;100.00;100872.00;10539994;28;20052;-78
2021/10/28 23:40:56;;;;;;;25.42;17.67;;;;;;;7.41;100.00;100865.13;10551077;28;20082;-78
2021/10/28 23:45:58;;;;;;;29.95;18.02;;;;;;;7.40;100.00;100865.97;10551214;28;20096;-79
2021/10/28 23:51:00;;;;;;;26.30;17.83;;;;;;;7.34;100.00;100862.34;10550722;28;20084;-78
2021/10/28 23:56:01;;;;;;;22.25;16.55;;;;;;;7.14;100.00;100857.50;10536570;28;20101;-78
